sensor_id;sensor_type;location;lat;lon;timestamp;P1;durP1;ratioP1;P2;durP2;ratioP2
39018;SDS011;24786;51.984;5.872;2023-03-21T00:00:23;31.02;;;18.00;;
39018;SDS011;24786;51.984;5.872;2023-03-21T00:02:49;38.58;;;20.02;;
39018;SDS011;24786;51.984;5.872;2023-03-21T00:05:14;28.33;;;18.92;;
39018;SDS011;24786;51.984;5.872;2023-03-21T00:07:40;36.85;;;19.02;;
39018;SDS011;24786;51.984;5.872;2023-03-21T00:10:06;38.17;;;19.38;;
39018;SDS011;24786;51.984;5.872;2023-03-21T00:12:32;39.90;;;21.45;;
39018;SDS011;24786;51.984;5.872;2023-03-21T00:15:01;32.67;;;20.30;;
39018;SDS011;24786;51.984;5.872;2023-03-21T00:17:30;35.60;;;21.88;;
39018;SDS011;24786;51.984;5.872;2023-03-21T00:19:59;35.22;;;21.50;;
39018;SDS011;24786;51.984;5.872;2023-03-21T00:22:26;34.17;;;21.58;;
39018;SDS011;24786;51.984;5.872;2023-03-21T00:24:52;35.03;;;20.85;;
39018;SDS011;24786;51.984;5.872;2023-03-21T00:27:18;36.08;;;21.95;;
39018;SDS011;24786;51.984;5.872;2023-03-21T00:29:44;42.35;;;23.60;;
39018;SDS011;24786;51.984;5.872;2023-03-21T00:32:13;36.38;;;22.48;;
39018;SDS011;24786;51.984;5.872;2023-03-21T00:34:38;32.20;;;22.40;;
39018;SDS011;24786;51.984;5.872;2023-03-21T00:37:04;35.97;;;21.88;;
39018;SDS011;24786;51.984;5.872;2023-03-21T00:39:31;36.97;;;23.77;;
39018;SDS011;24786;51.984;5.872;2023-03-21T00:41:57;32.63;;;21.15;;
39018;SDS011;24786;51.984;5.872;2023-03-21T00:44:23;33.78;;;22.00;;
39018;SDS011;24786;51.984;5.872;2023-03-21T00:46:49;41.55;;;23.40;;
39018;SDS011;24786;51.984;5.872;2023-03-21T00:49:15;42.22;;;23.17;;
39018;SDS011;24786;51.984;5.872;2023-03-21T00:51:41;31.20;;;20.55;;
39018;SDS011;24786;51.984;5.872;2023-03-21T00:54:08;43.25;;;22.27;;
39018;SDS011;24786;51.984;5.872;2023-03-21T00:56:36;36.33;;;21.35;;
39018;SDS011;24786;51.984;5.872;2023-03-21T00:59:02;32.72;;;21.45;;
39018;SDS011;24786;51.984;5.872;2023-03-21T01:01:27;30.98;;;21.00;;
39018;SDS011;24786;51.984;5.872;2023-03-21T01:03:59;32.97;;;22.13;;
39018;SDS011;24786;51.984;5.872;2023-03-21T01:06:34;34.70;;;22.42;;
39018;SDS011;24786;51.984;5.872;2023-03-21T01:09:03;33.45;;;21.42;;
39018;SDS011;24786;51.984;5.872;2023-03-21T01:11:29;35.67;;;21.95;;
39018;SDS011;24786;51.984;5.872;2023-03-21T01:13:55;36.50;;;21.02;;
39018;SDS011;24786;51.984;5.872;2023-03-21T01:16:21;33.88;;;21.67;;
39018;SDS011;24786;51.984;5.872;2023-03-21T01:18:46;34.80;;;21.25;;
39018;SDS011;24786;51.984;5.872;2023-03-21T01:21:12;32.08;;;21.35;;
39018;SDS011;24786;51.984;5.872;2023-03-21T01:23:39;34.97;;;21.48;;
39018;SDS011;24786;51.984;5.872;2023-03-21T01:26:06;39.17;;;23.10;;
39018;SDS011;24786;51.984;5.872;2023-03-21T01:28:33;36.70;;;21.55;;
39018;SDS011;24786;51.984;5.872;2023-03-21T01:31:00;33.92;;;21.45;;
39018;SDS011;24786;51.984;5.872;2023-03-21T01:33:26;37.90;;;22.52;;
39018;SDS011;24786;51.984;5.872;2023-03-21T01:35:53;30.10;;;20.95;;
39018;SDS011;24786;51.984;5.872;2023-03-21T01:38:19;35.28;;;21.67;;
39018;SDS011;24786;51.984;5.872;2023-03-21T01:40:46;35.65;;;21.25;;
39018;SDS011;24786;51.984;5.872;2023-03-21T01:43:25;32.97;;;21.63;;
39018;SDS011;24786;51.984;5.872;2023-03-21T01:46:37;31.77;;;20.67;;
39018;SDS011;24786;51.984;5.872;2023-03-21T01:49:03;29.85;;;19.90;;
39018;SDS011;24786;51.984;5.872;2023-03-21T01:51:45;31.13;;;20.23;;
39018;SDS011;24786;51.984;5.872;2023-03-21T01:54:16;33.25;;;19.85;;
39018;SDS011;24786;51.984;5.872;2023-03-21T01:56:48;36.53;;;21.27;;
39018;SDS011;24786;51.984;5.872;2023-03-21T01:59:18;29.80;;;18.83;;
39018;SDS011;24786;51.984;5.872;2023-03-21T02:01:46;33.08;;;19.85;;
39018;SDS011;24786;51.984;5.872;2023-03-21T02:04:13;27.20;;;16.65;;
39018;SDS011;24786;51.984;5.872;2023-03-21T02:06:54;30.85;;;20.00;;
39018;SDS011;24786;51.984;5.872;2023-03-21T02:09:22;31.13;;;18.60;;
39018;SDS011;24786;51.984;5.872;2023-03-21T02:11:52;25.55;;;17.70;;
39018;SDS011;24786;51.984;5.872;2023-03-21T02:14:19;28.70;;;19.33;;
39018;SDS011;24786;51.984;5.872;2023-03-21T02:19:20;32.58;;;18.48;;
39018;SDS011;24786;51.984;5.872;2023-03-21T02:22:09;30.35;;;18.90;;
39018;SDS011;24786;51.984;5.872;2023-03-21T02:27:44;30.17;;;18.88;;
39018;SDS011;24786;51.984;5.872;2023-03-21T02:30:26;28.80;;;18.67;;
39018;SDS011;24786;51.984;5.872;2023-03-21T02:41:39;31.85;;;19.10;;
39018;SDS011;24786;51.984;5.872;2023-03-21T02:47:38;30.45;;;20.20;;
39018;SDS011;24786;51.984;5.872;2023-03-21T02:52:44;30.65;;;20.88;;
39018;SDS011;24786;51.984;5.872;2023-03-21T02:55:13;30.03;;;19.33;;
39018;SDS011;24786;51.984;5.872;2023-03-21T02:57:50;32.53;;;20.48;;
39018;SDS011;24786;51.984;5.872;2023-03-21T03:00:19;28.70;;;20.25;;
39018;SDS011;24786;51.984;5.872;2023-03-21T03:02:50;29.27;;;19.58;;
39018;SDS011;24786;51.984;5.872;2023-03-21T03:05:17;30.77;;;20.40;;
39018;SDS011;24786;51.984;5.872;2023-03-21T03:07:49;35.40;;;22.88;;
39018;SDS011;24786;51.984;5.872;2023-03-21T03:13:37;35.35;;;21.15;;
39018;SDS011;24786;51.984;5.872;2023-03-21T03:16:27;28.60;;;20.08;;
39018;SDS011;24786;51.984;5.872;2023-03-21T03:19:00;29.05;;;19.75;;
39018;SDS011;24786;51.984;5.872;2023-03-21T03:21:31;33.50;;;21.38;;
39018;SDS011;24786;51.984;5.872;2023-03-21T03:24:14;38.13;;;21.40;;
39018;SDS011;24786;51.984;5.872;2023-03-21T03:26:50;38.85;;;20.88;;
39018;SDS011;24786;51.984;5.872;2023-03-21T03:29:21;35.97;;;21.63;;
39018;SDS011;24786;51.984;5.872;2023-03-21T03:31:59;31.58;;;20.95;;
39018;SDS011;24786;51.984;5.872;2023-03-21T03:34:40;36.92;;;22.42;;
39018;SDS011;24786;51.984;5.872;2023-03-21T03:37:10;33.15;;;21.05;;
39018;SDS011;24786;51.984;5.872;2023-03-21T03:39:42;34.08;;;20.55;;
39018;SDS011;24786;51.984;5.872;2023-03-21T03:42:15;33.00;;;20.90;;
39018;SDS011;24786;51.984;5.872;2023-03-21T03:44:44;31.20;;;21.23;;
39018;SDS011;24786;51.984;5.872;2023-03-21T03:47:11;31.13;;;19.95;;
39018;SDS011;24786;51.984;5.872;2023-03-21T03:50:01;39.05;;;20.98;;
39018;SDS011;24786;51.984;5.872;2023-03-21T03:52:36;32.67;;;19.98;;
39018;SDS011;24786;51.984;5.872;2023-03-21T03:55:13;32.28;;;19.50;;
39018;SDS011;24786;51.984;5.872;2023-03-21T03:57:41;34.20;;;18.90;;
39018;SDS011;24786;51.984;5.872;2023-03-21T04:00:08;30.98;;;17.85;;
39018;SDS011;24786;51.984;5.872;2023-03-21T04:02:39;29.30;;;18.20;;
39018;SDS011;24786;51.984;5.872;2023-03-21T04:05:05;29.02;;;17.38;;
39018;SDS011;24786;51.984;5.872;2023-03-21T04:07:31;24.58;;;15.57;;
39018;SDS011;24786;51.984;5.872;2023-03-21T04:09:57;26.88;;;16.20;;
39018;SDS011;24786;51.984;5.872;2023-03-21T04:12:23;26.77;;;15.15;;
39018;SDS011;24786;51.984;5.872;2023-03-21T04:14:49;26.23;;;16.30;;
39018;SDS011;24786;51.984;5.872;2023-03-21T04:17:16;25.30;;;15.35;;
39018;SDS011;24786;51.984;5.872;2023-03-21T04:19:42;25.40;;;14.65;;
39018;SDS011;24786;51.984;5.872;2023-03-21T04:22:09;25.40;;;16.17;;
39018;SDS011;24786;51.984;5.872;2023-03-21T04:24:36;24.20;;;14.65;;
39018;SDS011;24786;51.984;5.872;2023-03-21T04:27:02;25.10;;;15.00;;
39018;SDS011;24786;51.984;5.872;2023-03-21T04:29:29;24.05;;;13.43;;
39018;SDS011;24786;51.984;5.872;2023-03-21T04:31:56;24.58;;;14.48;;
39018;SDS011;24786;51.984;5.872;2023-03-21T04:34:21;29.83;;;14.60;;
39018;SDS011;24786;51.984;5.872;2023-03-21T04:36:48;25.55;;;13.95;;
39018;SDS011;24786;51.984;5.872;2023-03-21T04:39:14;30.75;;;15.32;;
39018;SDS011;24786;51.984;5.872;2023-03-21T04:41:41;26.52;;;14.27;;
39018;SDS011;24786;51.984;5.872;2023-03-21T04:44:08;27.90;;;15.05;;
39018;SDS011;24786;51.984;5.872;2023-03-21T04:46:34;24.75;;;13.50;;
39018;SDS011;24786;51.984;5.872;2023-03-21T04:49:00;20.25;;;12.88;;
39018;SDS011;24786;51.984;5.872;2023-03-21T04:51:26;25.17;;;14.27;;
39018;SDS011;24786;51.984;5.872;2023-03-21T04:53:52;30.00;;;13.18;;
39018;SDS011;24786;51.984;5.872;2023-03-21T04:56:21;22.38;;;12.13;;
39018;SDS011;24786;51.984;5.872;2023-03-21T04:58:57;21.65;;;12.95;;
39018;SDS011;24786;51.984;5.872;2023-03-21T05:01:29;21.02;;;12.05;;
39018;SDS011;24786;51.984;5.872;2023-03-21T05:03:57;20.88;;;10.73;;
39018;SDS011;24786;51.984;5.872;2023-03-21T05:06:24;21.25;;;13.13;;
39018;SDS011;24786;51.984;5.872;2023-03-21T05:08:50;20.90;;;12.20;;
39018;SDS011;24786;51.984;5.872;2023-03-21T05:11:16;22.52;;;13.00;;
39018;SDS011;24786;51.984;5.872;2023-03-21T05:13:41;22.40;;;12.23;;
39018;SDS011;24786;51.984;5.872;2023-03-21T05:16:07;17.67;;;10.85;;
39018;SDS011;24786;51.984;5.872;2023-03-21T05:18:33;19.60;;;11.98;;
39018;SDS011;24786;51.984;5.872;2023-03-21T05:21:02;22.48;;;12.00;;
39018;SDS011;24786;51.984;5.872;2023-03-21T05:23:31;24.08;;;13.40;;
39018;SDS011;24786;51.984;5.872;2023-03-21T05:26:02;26.58;;;13.50;;
39018;SDS011;24786;51.984;5.872;2023-03-21T05:28:32;20.63;;;11.65;;
39018;SDS011;24786;51.984;5.872;2023-03-21T05:31:00;18.02;;;11.25;;
39018;SDS011;24786;51.984;5.872;2023-03-21T05:33:29;29.65;;;13.20;;
39018;SDS011;24786;51.984;5.872;2023-03-21T05:35:55;27.55;;;12.40;;
39018;SDS011;24786;51.984;5.872;2023-03-21T05:38:21;19.85;;;11.80;;
39018;SDS011;24786;51.984;5.872;2023-03-21T05:40:47;22.67;;;13.00;;
39018;SDS011;24786;51.984;5.872;2023-03-21T05:43:14;24.25;;;12.63;;
39018;SDS011;24786;51.984;5.872;2023-03-21T05:45:39;18.15;;;11.52;;
39018;SDS011;24786;51.984;5.872;2023-03-21T05:48:05;20.27;;;11.77;;
39018;SDS011;24786;51.984;5.872;2023-03-21T05:50:31;24.90;;;12.38;;
39018;SDS011;24786;51.984;5.872;2023-03-21T05:52:56;24.58;;;12.50;;
39018;SDS011;24786;51.984;5.872;2023-03-21T05:55:22;20.63;;;11.15;;
39018;SDS011;24786;51.984;5.872;2023-03-21T05:57:48;18.83;;;11.15;;
39018;SDS011;24786;51.984;5.872;2023-03-21T06:00:13;19.27;;;11.43;;
39018;SDS011;24786;51.984;5.872;2023-03-21T06:02:40;24.70;;;12.27;;
39018;SDS011;24786;51.984;5.872;2023-03-21T06:05:06;22.92;;;12.43;;
39018;SDS011;24786;51.984;5.872;2023-03-21T06:07:32;20.58;;;11.57;;
39018;SDS011;24786;51.984;5.872;2023-03-21T06:09:58;21.13;;;11.15;;
39018;SDS011;24786;51.984;5.872;2023-03-21T06:12:23;22.20;;;11.65;;
39018;SDS011;24786;51.984;5.872;2023-03-21T06:14:49;17.42;;;10.68;;
39018;SDS011;24786;51.984;5.872;2023-03-21T06:17:14;26.23;;;13.18;;
39018;SDS011;24786;51.984;5.872;2023-03-21T06:19:40;18.15;;;12.18;;
39018;SDS011;24786;51.984;5.872;2023-03-21T06:22:06;23.10;;;12.18;;
39018;SDS011;24786;51.984;5.872;2023-03-21T06:24:31;23.45;;;11.48;;
39018;SDS011;24786;51.984;5.872;2023-03-21T06:26:57;23.13;;;11.88;;
39018;SDS011;24786;51.984;5.872;2023-03-21T06:29:23;27.35;;;13.13;;
39018;SDS011;24786;51.984;5.872;2023-03-21T06:31:48;20.85;;;11.68;;
39018;SDS011;24786;51.984;5.872;2023-03-21T06:34:14;25.33;;;11.98;;
39018;SDS011;24786;51.984;5.872;2023-03-21T06:36:39;21.85;;;12.98;;
39018;SDS011;24786;51.984;5.872;2023-03-21T06:39:05;21.00;;;11.20;;
39018;SDS011;24786;51.984;5.872;2023-03-21T06:41:32;23.60;;;12.15;;
39018;SDS011;24786;51.984;5.872;2023-03-21T06:43:57;20.80;;;12.48;;
39018;SDS011;24786;51.984;5.872;2023-03-21T06:46:23;20.65;;;11.82;;
39018;SDS011;24786;51.984;5.872;2023-03-21T06:48:49;21.45;;;12.75;;
39018;SDS011;24786;51.984;5.872;2023-03-21T06:51:15;23.80;;;12.98;;
39018;SDS011;24786;51.984;5.872;2023-03-21T06:53:41;18.58;;;11.68;;
39018;SDS011;24786;51.984;5.872;2023-03-21T06:56:08;24.35;;;12.30;;
39018;SDS011;24786;51.984;5.872;2023-03-21T06:58:35;20.17;;;12.02;;
39018;SDS011;24786;51.984;5.872;2023-03-21T07:01:01;21.08;;;11.05;;
39018;SDS011;24786;51.984;5.872;2023-03-21T07:03:27;22.85;;;12.02;;
39018;SDS011;24786;51.984;5.872;2023-03-21T07:05:53;21.88;;;11.48;;
39018;SDS011;24786;51.984;5.872;2023-03-21T07:08:20;21.65;;;11.77;;
39018;SDS011;24786;51.984;5.872;2023-03-21T07:10:45;24.42;;;11.68;;
39018;SDS011;24786;51.984;5.872;2023-03-21T07:13:11;22.55;;;12.23;;
39018;SDS011;24786;51.984;5.872;2023-03-21T07:15:37;20.77;;;11.75;;
39018;SDS011;24786;51.984;5.872;2023-03-21T07:18:04;19.92;;;10.80;;
39018;SDS011;24786;51.984;5.872;2023-03-21T07:20:30;22.75;;;11.50;;
39018;SDS011;24786;51.984;5.872;2023-03-21T07:22:56;20.42;;;10.73;;
39018;SDS011;24786;51.984;5.872;2023-03-21T07:25:22;20.25;;;12.18;;
39018;SDS011;24786;51.984;5.872;2023-03-21T07:27:49;21.88;;;11.55;;
39018;SDS011;24786;51.984;5.872;2023-03-21T07:30:14;19.88;;;10.15;;
39018;SDS011;24786;51.984;5.872;2023-03-21T07:32:40;26.58;;;12.00;;
39018;SDS011;24786;51.984;5.872;2023-03-21T07:35:07;19.48;;;9.88;;
39018;SDS011;24786;51.984;5.872;2023-03-21T07:37:38;15.98;;;10.75;;
39018;SDS011;24786;51.984;5.872;2023-03-21T07:40:04;16.45;;;9.60;;
39018;SDS011;24786;51.984;5.872;2023-03-21T07:42:34;20.10;;;10.30;;
39018;SDS011;24786;51.984;5.872;2023-03-21T07:45:03;18.25;;;9.93;;
39018;SDS011;24786;51.984;5.872;2023-03-21T07:47:30;20.80;;;10.98;;
39018;SDS011;24786;51.984;5.872;2023-03-21T07:49:56;21.52;;;10.15;;
39018;SDS011;24786;51.984;5.872;2023-03-21T07:52:22;19.00;;;10.88;;
39018;SDS011;24786;51.984;5.872;2023-03-21T07:54:48;18.92;;;9.85;;
39018;SDS011;24786;51.984;5.872;2023-03-21T07:57:13;18.65;;;9.77;;
39018;SDS011;24786;51.984;5.872;2023-03-21T07:59:39;26.15;;;10.52;;
39018;SDS011;24786;51.984;5.872;2023-03-21T08:02:04;20.13;;;10.50;;
39018;SDS011;24786;51.984;5.872;2023-03-21T08:04:31;17.63;;;9.45;;
39018;SDS011;24786;51.984;5.872;2023-03-21T08:06:56;19.10;;;9.73;;
39018;SDS011;24786;51.984;5.872;2023-03-21T08:09:22;20.77;;;10.20;;
39018;SDS011;24786;51.984;5.872;2023-03-21T08:11:48;18.15;;;9.23;;
39018;SDS011;24786;51.984;5.872;2023-03-21T08:14:14;19.65;;;9.80;;
39018;SDS011;24786;51.984;5.872;2023-03-21T08:16:40;20.58;;;9.40;;
39018;SDS011;24786;51.984;5.872;2023-03-21T08:19:05;18.77;;;9.80;;
39018;SDS011;24786;51.984;5.872;2023-03-21T08:21:31;16.80;;;9.20;;
39018;SDS011;24786;51.984;5.872;2023-03-21T08:23:56;16.00;;;9.18;;
39018;SDS011;24786;51.984;5.872;2023-03-21T08:26:22;16.30;;;8.75;;
39018;SDS011;24786;51.984;5.872;2023-03-21T08:28:50;19.33;;;8.90;;
39018;SDS011;24786;51.984;5.872;2023-03-21T08:31:16;14.13;;;8.40;;
39018;SDS011;24786;51.984;5.872;2023-03-21T08:33:42;22.65;;;9.77;;
39018;SDS011;24786;51.984;5.872;2023-03-21T08:36:08;16.30;;;8.18;;
39018;SDS011;24786;51.984;5.872;2023-03-21T08:38:34;18.25;;;9.80;;
39018;SDS011;24786;51.984;5.872;2023-03-21T08:41:00;16.08;;;9.50;;
39018;SDS011;24786;51.984;5.872;2023-03-21T08:43:26;16.70;;;10.10;;
39018;SDS011;24786;51.984;5.872;2023-03-21T08:45:53;18.90;;;9.43;;
39018;SDS011;24786;51.984;5.872;2023-03-21T08:48:19;14.35;;;8.15;;
39018;SDS011;24786;51.984;5.872;2023-03-21T08:50:45;15.90;;;8.85;;
39018;SDS011;24786;51.984;5.872;2023-03-21T08:53:10;17.08;;;9.07;;
39018;SDS011;24786;51.984;5.872;2023-03-21T08:55:36;16.92;;;8.95;;
39018;SDS011;24786;51.984;5.872;2023-03-21T08:58:02;18.45;;;8.43;;
39018;SDS011;24786;51.984;5.872;2023-03-21T09:00:27;17.25;;;8.93;;
39018;SDS011;24786;51.984;5.872;2023-03-21T09:02:53;16.73;;;8.88;;
39018;SDS011;24786;51.984;5.872;2023-03-21T09:05:20;19.92;;;9.55;;
39018;SDS011;24786;51.984;5.872;2023-03-21T09:07:47;17.65;;;9.30;;
39018;SDS011;24786;51.984;5.872;2023-03-21T09:10:17;16.70;;;8.45;;
39018;SDS011;24786;51.984;5.872;2023-03-21T09:12:45;18.17;;;8.32;;
39018;SDS011;24786;51.984;5.872;2023-03-21T09:15:11;17.55;;;9.75;;
39018;SDS011;24786;51.984;5.872;2023-03-21T09:17:38;17.50;;;9.10;;
39018;SDS011;24786;51.984;5.872;2023-03-21T09:20:07;16.27;;;8.55;;
39018;SDS011;24786;51.984;5.872;2023-03-21T09:22:45;16.27;;;8.75;;
39018;SDS011;24786;51.984;5.872;2023-03-21T09:25:13;17.08;;;8.93;;
39018;SDS011;24786;51.984;5.872;2023-03-21T09:27:40;17.48;;;9.63;;
39018;SDS011;24786;51.984;5.872;2023-03-21T09:30:07;18.90;;;9.98;;
39018;SDS011;24786;51.984;5.872;2023-03-21T09:32:34;17.83;;;9.40;;
39018;SDS011;24786;51.984;5.872;2023-03-21T09:35:00;18.88;;;9.52;;
39018;SDS011;24786;51.984;5.872;2023-03-21T09:37:26;17.17;;;9.70;;
39018;SDS011;24786;51.984;5.872;2023-03-21T09:39:51;16.25;;;8.50;;
39018;SDS011;24786;51.984;5.872;2023-03-21T09:47:30;13.05;;;8.30;;
39018;SDS011;24786;51.984;5.872;2023-03-21T09:50:43;14.82;;;8.60;;
39018;SDS011;24786;51.984;5.872;2023-03-21T09:53:07;13.35;;;8.75;;
39018;SDS011;24786;51.984;5.872;2023-03-21T09:55:37;13.65;;;8.20;;
39018;SDS011;24786;51.984;5.872;2023-03-21T10:00:58;17.88;;;8.60;;
39018;SDS011;24786;51.984;5.872;2023-03-21T10:03:29;16.58;;;8.15;;
39018;SDS011;24786;51.984;5.872;2023-03-21T10:05:59;19.42;;;8.98;;
39018;SDS011;24786;51.984;5.872;2023-03-21T10:08:29;19.45;;;9.02;;
39018;SDS011;24786;51.984;5.872;2023-03-21T10:11:01;18.13;;;9.35;;
39018;SDS011;24786;51.984;5.872;2023-03-21T10:13:41;19.23;;;9.52;;
39018;SDS011;24786;51.984;5.872;2023-03-21T10:16:31;19.23;;;9.13;;
39018;SDS011;24786;51.984;5.872;2023-03-21T10:19:16;15.73;;;8.65;;
39018;SDS011;24786;51.984;5.872;2023-03-21T10:21:46;12.23;;;7.70;;
39018;SDS011;24786;51.984;5.872;2023-03-21T10:26:40;13.02;;;7.28;;
39018;SDS011;24786;51.984;5.872;2023-03-21T10:29:08;15.27;;;8.45;;
39018;SDS011;24786;51.984;5.872;2023-03-21T10:31:37;12.73;;;7.97;;
39018;SDS011;24786;51.984;5.872;2023-03-21T10:34:07;12.15;;;6.70;;
39018;SDS011;24786;51.984;5.872;2023-03-21T10:36:42;13.40;;;7.78;;
39018;SDS011;24786;51.984;5.872;2023-03-21T10:39:13;12.43;;;7.45;;
39018;SDS011;24786;51.984;5.872;2023-03-21T10:41:48;20.48;;;7.65;;
39018;SDS011;24786;51.984;5.872;2023-03-21T10:44:17;12.85;;;8.35;;
39018;SDS011;24786;51.984;5.872;2023-03-21T10:46:50;13.35;;;7.93;;
39018;SDS011;24786;51.984;5.872;2023-03-21T10:49:18;10.68;;;7.22;;
39018;SDS011;24786;51.984;5.872;2023-03-21T10:51:46;14.45;;;7.40;;
39018;SDS011;24786;51.984;5.872;2023-03-21T10:54:17;10.57;;;7.28;;
39018;SDS011;24786;51.984;5.872;2023-03-21T10:59:21;11.95;;;7.90;;
39018;SDS011;24786;51.984;5.872;2023-03-21T11:01:51;12.40;;;7.43;;
39018;SDS011;24786;51.984;5.872;2023-03-21T11:04:21;16.23;;;8.40;;
39018;SDS011;24786;51.984;5.872;2023-03-21T11:06:51;13.68;;;7.68;;
39018;SDS011;24786;51.984;5.872;2023-03-21T11:09:44;9.65;;;7.40;;
39018;SDS011;24786;51.984;5.872;2023-03-21T11:12:13;12.73;;;6.30;;
39018;SDS011;24786;51.984;5.872;2023-03-21T11:14:46;15.77;;;7.85;;
39018;SDS011;24786;51.984;5.872;2023-03-21T11:20:00;11.60;;;6.88;;
39018;SDS011;24786;51.984;5.872;2023-03-21T11:22:35;12.88;;;7.07;;
39018;SDS011;24786;51.984;5.872;2023-03-21T11:25:08;12.52;;;6.90;;
39018;SDS011;24786;51.984;5.872;2023-03-21T11:27:53;14.38;;;7.15;;
39018;SDS011;24786;51.984;5.872;2023-03-21T11:30:20;13.50;;;7.20;;
39018;SDS011;24786;51.984;5.872;2023-03-21T11:32:55;14.60;;;6.90;;
39018;SDS011;24786;51.984;5.872;2023-03-21T11:35:23;12.63;;;6.60;;
39018;SDS011;24786;51.984;5.872;2023-03-21T11:40:21;15.53;;;6.77;;
39018;SDS011;24786;51.984;5.872;2023-03-21T11:42:53;13.40;;;7.13;;
39018;SDS011;24786;51.984;5.872;2023-03-21T11:45:25;10.10;;;6.38;;
39018;SDS011;24786;51.984;5.872;2023-03-21T11:48:00;12.23;;;7.38;;
39018;SDS011;24786;51.984;5.872;2023-03-21T11:50:40;14.63;;;7.97;;
39018;SDS011;24786;51.984;5.872;2023-03-21T12:00:49;11.82;;;6.28;;
39018;SDS011;24786;51.984;5.872;2023-03-21T12:06:13;8.77;;;6.30;;
39018;SDS011;24786;51.984;5.872;2023-03-21T12:11:26;12.13;;;6.75;;
39018;SDS011;24786;51.984;5.872;2023-03-21T12:17:12;12.65;;;6.95;;
39018;SDS011;24786;51.984;5.872;2023-03-21T12:20:15;9.30;;;6.40;;
39018;SDS011;24786;51.984;5.872;2023-03-21T12:22:57;13.27;;;5.82;;
39018;SDS011;24786;51.984;5.872;2023-03-21T12:25:47;11.63;;;6.68;;
39018;SDS011;24786;51.984;5.872;2023-03-21T12:28:30;8.55;;;5.82;;
39018;SDS011;24786;51.984;5.872;2023-03-21T12:31:10;14.25;;;5.93;;
39018;SDS011;24786;51.984;5.872;2023-03-21T12:34:04;8.65;;;5.75;;
39018;SDS011;24786;51.984;5.872;2023-03-21T12:39:29;12.18;;;5.82;;
39018;SDS011;24786;51.984;5.872;2023-03-21T12:44:32;10.55;;;5.38;;
39018;SDS011;24786;51.984;5.872;2023-03-21T12:47:08;9.00;;;5.47;;
39018;SDS011;24786;51.984;5.872;2023-03-21T12:49:38;8.05;;;6.35;;
39018;SDS011;24786;51.984;5.872;2023-03-21T12:52:10;7.28;;;6.20;;
39018;SDS011;24786;51.984;5.872;2023-03-21T12:54:41;11.88;;;6.45;;
39018;SDS011;24786;51.984;5.872;2023-03-21T12:57:18;9.70;;;5.60;;
39018;SDS011;24786;51.984;5.872;2023-03-21T13:02:30;9.57;;;5.85;;
39018;SDS011;24786;51.984;5.872;2023-03-21T13:07:42;8.20;;;5.45;;
39018;SDS011;24786;51.984;5.872;2023-03-21T13:10:13;9.88;;;5.85;;
39018;SDS011;24786;51.984;5.872;2023-03-21T13:12:49;11.57;;;6.47;;
39018;SDS011;24786;51.984;5.872;2023-03-21T13:17:49;9.30;;;5.32;;
39018;SDS011;24786;51.984;5.872;2023-03-21T13:20:43;10.93;;;5.25;;
39018;SDS011;24786;51.984;5.872;2023-03-21T13:25:42;6.90;;;5.03;;
39018;SDS011;24786;51.984;5.872;2023-03-21T13:28:17;5.55;;;4.78;;
39018;SDS011;24786;51.984;5.872;2023-03-21T13:33:49;6.60;;;4.95;;
39018;SDS011;24786;51.984;5.872;2023-03-21T13:36:24;9.15;;;5.80;;
39018;SDS011;24786;51.984;5.872;2023-03-21T13:38:58;8.82;;;5.15;;
39018;SDS011;24786;51.984;5.872;2023-03-21T13:41:30;13.13;;;5.68;;
39018;SDS011;24786;51.984;5.872;2023-03-21T13:51:21;7.78;;;5.18;;
39018;SDS011;24786;51.984;5.872;2023-03-21T13:59:11;11.57;;;5.53;;
39018;SDS011;24786;51.984;5.872;2023-03-21T14:01:59;8.15;;;5.50;;
39018;SDS011;24786;51.984;5.872;2023-03-21T14:04:41;7.82;;;4.78;;
39018;SDS011;24786;51.984;5.872;2023-03-21T14:07:11;10.38;;;5.82;;
39018;SDS011;24786;51.984;5.872;2023-03-21T14:09:48;7.85;;;4.93;;
39018;SDS011;24786;51.984;5.872;2023-03-21T14:12:18;10.23;;;5.10;;
39018;SDS011;24786;51.984;5.872;2023-03-21T14:14:52;7.53;;;4.75;;
39018;SDS011;24786;51.984;5.872;2023-03-21T14:17:29;9.05;;;5.55;;
39018;SDS011;24786;51.984;5.872;2023-03-21T14:19:58;10.55;;;5.10;;
39018;SDS011;24786;51.984;5.872;2023-03-21T14:22:50;9.52;;;5.85;;
39018;SDS011;24786;51.984;5.872;2023-03-21T14:25:18;8.65;;;5.57;;
39018;SDS011;24786;51.984;5.872;2023-03-21T14:27:52;7.18;;;5.40;;
39018;SDS011;24786;51.984;5.872;2023-03-21T14:30:26;10.10;;;5.65;;
39018;SDS011;24786;51.984;5.872;2023-03-21T14:32:59;5.75;;;5.07;;
39018;SDS011;24786;51.984;5.872;2023-03-21T14:35:35;6.68;;;4.90;;
39018;SDS011;24786;51.984;5.872;2023-03-21T14:38:05;7.30;;;5.38;;
39018;SDS011;24786;51.984;5.872;2023-03-21T14:40:33;10.35;;;5.32;;
39018;SDS011;24786;51.984;5.872;2023-03-21T14:43:03;9.70;;;4.97;;
39018;SDS011;24786;51.984;5.872;2023-03-21T14:45:30;9.68;;;5.32;;
39018;SDS011;24786;51.984;5.872;2023-03-21T14:48:06;7.30;;;4.88;;
39018;SDS011;24786;51.984;5.872;2023-03-21T14:53:19;7.50;;;5.40;;
39018;SDS011;24786;51.984;5.872;2023-03-21T14:55:56;7.45;;;5.45;;
39018;SDS011;24786;51.984;5.872;2023-03-21T14:58:27;11.93;;;4.90;;
39018;SDS011;24786;51.984;5.872;2023-03-21T15:00:54;6.55;;;5.13;;
39018;SDS011;24786;51.984;5.872;2023-03-21T15:03:24;6.88;;;4.70;;
39018;SDS011;24786;51.984;5.872;2023-03-21T15:05:52;8.00;;;4.93;;
39018;SDS011;24786;51.984;5.872;2023-03-21T15:08:22;7.57;;;5.07;;
39018;SDS011;24786;51.984;5.872;2023-03-21T15:10:54;11.20;;;6.00;;
39018;SDS011;24786;51.984;5.872;2023-03-21T15:13:24;9.73;;;4.75;;
39018;SDS011;24786;51.984;5.872;2023-03-21T15:16:14;5.63;;;4.25;;
39018;SDS011;24786;51.984;5.872;2023-03-21T15:18:40;7.75;;;5.05;;
39018;SDS011;24786;51.984;5.872;2023-03-21T15:21:08;5.47;;;4.38;;
39018;SDS011;24786;51.984;5.872;2023-03-21T15:23:43;9.80;;;4.80;;
39018;SDS011;24786;51.984;5.872;2023-03-21T15:26:12;6.72;;;4.35;;
39018;SDS011;24786;51.984;5.872;2023-03-21T15:28:41;6.57;;;4.40;;
39018;SDS011;24786;51.984;5.872;2023-03-21T15:31:17;8.13;;;4.97;;
39018;SDS011;24786;51.984;5.872;2023-03-21T15:33:48;6.65;;;4.90;;
39018;SDS011;24786;51.984;5.872;2023-03-21T15:36:17;6.00;;;4.47;;
39018;SDS011;24786;51.984;5.872;2023-03-21T15:38:49;9.20;;;4.50;;
39018;SDS011;24786;51.984;5.872;2023-03-21T15:43:44;6.82;;;5.00;;
39018;SDS011;24786;51.984;5.872;2023-03-21T15:46:15;7.13;;;5.07;;
39018;SDS011;24786;51.984;5.872;2023-03-21T15:48:43;12.63;;;5.63;;
39018;SDS011;24786;51.984;5.872;2023-03-21T15:51:21;7.88;;;5.20;;
39018;SDS011;24786;51.984;5.872;2023-03-21T15:53:49;7.85;;;5.10;;
39018;SDS011;24786;51.984;5.872;2023-03-21T15:56:18;6.22;;;4.85;;
39018;SDS011;24786;51.984;5.872;2023-03-21T15:58:47;6.75;;;4.82;;
39018;SDS011;24786;51.984;5.872;2023-03-21T16:01:19;7.78;;;5.68;;
39018;SDS011;24786;51.984;5.872;2023-03-21T16:03:54;6.22;;;4.65;;
39018;SDS011;24786;51.984;5.872;2023-03-21T16:06:26;7.63;;;5.07;;
39018;SDS011;24786;51.984;5.872;2023-03-21T16:11:57;9.63;;;5.57;;
39018;SDS011;24786;51.984;5.872;2023-03-21T16:14:24;8.18;;;4.93;;
39018;SDS011;24786;51.984;5.872;2023-03-21T16:16:53;9.10;;;5.25;;
39018;SDS011;24786;51.984;5.872;2023-03-21T16:19:21;4.63;;;4.20;;
39018;SDS011;24786;51.984;5.872;2023-03-21T16:21:48;6.63;;;4.43;;
39018;SDS011;24786;51.984;5.872;2023-03-21T16:24:14;6.18;;;4.80;;